Time,TemperatureF,DewpointF,PressureIn,WindDirection,WindDirectionDegrees,WindSpeedMPH,WindSpeedGustMPH,Humidity,HourlyPrecipIn,Conditions,Clouds,dailyrainin,SoftwareType,DateUTC
2013-02-11 00:01:00,22.0,12.0,30.36,SSW,202,0.0,-999.0,64,-99.99,,,-99.99,,2013-02-11 05:01:00,
2013-02-11 00:12:00,22.0,12.0,30.36,SSW,202,0.0,-999.0,66,-99.99,,,-99.99,,2013-02-11 05:12:00,
2013-02-11 00:22:00,22.0,12.0,30.36,SSW,202,0.0,-999.0,66,-99.99,,,-99.99,,2013-02-11 05:22:00,
2013-02-11 00:32:00,22.0,12.0,30.35,SSW,202,0.0,-999.0,65,-99.99,,,-99.99,,2013-02-11 05:32:00,
2013-02-11 00:42:00,22.0,12.0,30.35,SSW,202,0.0,-999.0,65,-99.99,,,-99.99,,2013-02-11 05:42:00,
2013-02-11 00:53:00,22.0,11.0,30.34,SSW,202,0.0,-999.0,62,-99.99,,,-99.99,,2013-02-11 05:53:00,
2013-02-11 01:02:00,23.0,12.0,30.34,SSW,202,0.0,-999.0,63,-99.99,,,-99.99,,2013-02-11 06:02:00,
2013-02-11 01:12:00,23.0,12.0,30.34,SSW,202,0.0,-999.0,63,-99.99,,,-99.99,,2013-02-11 06:12:00,
2013-02-11 01:22:00,23.0,12.0,30.34,SSW,202,0.0,-999.0,63,-99.99,,,-99.99,,2013-02-11 06:22:00,
2013-02-11 01:32:00,23.0,13.0,30.33,SSW,202,0.0,-999.0,66,-99.99,,,-99.99,,2013-02-11 06:32:00,
2013-02-11 01:42:00,22.0,13.0,30.33,SSW,202,0.0,-999.0,69,-99.99,,,-99.99,,2013-02-11 06:42:00,
2013-02-11 01:52:00,22.0,13.0,30.33,SSW,202,0.0,-999.0,69,-99.99,,,-99.99,,2013-02-11 06:52:00,
2013-02-11 02:02:00,24.0,16.0,30.32,SSW,207,0.0,-999.0,71,-99.99,,,-99.99,,2013-02-11 07:02:00,
2013-02-11 02:11:00,25.0,17.0,30.31,SSW,206,0.0,-999.0,70,-99.99,,,-99.99,,2013-02-11 07:11:00,
2013-02-11 02:22:00,25.0,17.0,30.31,SSW,206,0.0,-999.0,70,-99.99,,,-99.99,,2013-02-11 07:22:00,
2013-02-11 02:32:00,25.0,17.0,30.31,SSW,207,0.0,-999.0,72,-99.99,,,-99.99,,2013-02-11 07:32:00,
2013-02-11 02:42:00,26.0,19.0,30.30,SSW,207,0.0,-999.0,73,-99.99,,,-99.99,,2013-02-11 07:42:00,
2013-02-11 02:52:00,26.0,19.0,30.30,SSW,207,0.0,-999.0,73,-99.99,,,-99.99,,2013-02-11 07:52:00,
2013-02-11 03:01:00,26.0,19.0,30.29,SSW,208,0.0,-999.0,76,-99.99,,,-99.99,,2013-02-11 08:01:00,
2013-02-11 03:11:00,25.0,17.0,30.28,SSW,208,0.0,-999.0,70,-99.99,,,-99.99,,2013-02-11 08:11:00,
2013-02-11 03:21:00,25.0,17.0,30.28,SSW,208,0.0,-999.0,70,-99.99,,,-99.99,,2013-02-11 08:21:00,
2013-02-11 03:32:00,25.0,19.0,30.27,SSW,208,0.0,-999.0,78,-99.99,,,-99.99,,2013-02-11 08:32:00,
2013-02-11 03:42:00,26.0,21.0,30.25,SW,218,0.0,-999.0,80,-99.99,,,-99.99,,2013-02-11 08:42:00,
2013-02-11 03:52:00,26.0,21.0,30.25,SW,218,0.0,-999.0,80,-99.99,,,-99.99,,2013-02-11 08:52:00,
2013-02-11 04:01:00,26.0,21.0,30.24,SW,217,0.0,-999.0,80,-99.99,,,-99.99,,2013-02-11 09:01:00,
2013-02-11 04:12:00,26.0,21.0,30.24,SW,217,0.0,-999.0,80,-99.99,,,-99.99,,2013-02-11 09:12:00,
2013-02-11 04:21:00,26.0,20.0,30.25,SW,218,0.0,-999.0,77,-99.99,,,-99.99,,2013-02-11 09:21:00,
2013-02-11 04:32:00,27.0,22.0,30.25,SW,218,0.0,-999.0,82,-99.99,,,-99.99,,2013-02-11 09:32:00,
2013-02-11 04:42:00,27.0,22.0,30.25,SW,218,0.0,-999.0,82,-99.99,,,-99.99,,2013-02-11 09:42:00,
2013-02-11 04:52:00,28.0,23.0,30.24,SSW,204,0.0,-999.0,82,-99.99,,,-99.99,,2013-02-11 09:52:00,
2013-02-11 05:01:00,29.0,24.0,30.24,SSW,213,0.0,-999.0,81,-99.99,,,-99.99,,2013-02-11 10:01:00,
2013-02-11 05:11:00,29.0,24.0,30.24,SSW,213,0.0,-999.0,81,-99.99,,,-99.99,,2013-02-11 10:11:00,
2013-02-11 05:21:00,29.0,24.0,30.24,South,181,0.0,-999.0,82,-99.99,,,-99.99,,2013-02-11 10:21:00,
2013-02-11 05:32:00,29.0,25.0,30.23,South,188,0.0,-999.0,83,-99.99,,,-99.99,,2013-02-11 10:32:00,
2013-02-11 05:42:00,29.0,25.0,30.23,South,188,0.0,-999.0,83,-99.99,,,-99.99,,2013-02-11 10:42:00,
2013-02-11 05:52:00,29.0,25.0,30.23,South,188,0.0,-999.0,83,-99.99,,,-99.99,,2013-02-11 10:52:00,
2013-02-11 06:02:00,29.0,25.0,30.20,South,187,0.0,-999.0,85,-99.99,,,-99.99,,2013-02-11 11:02:00,
2013-02-11 06:11:00,29.0,25.0,30.20,South,187,0.0,-999.0,85,-99.99,,,-99.99,,2013-02-11 11:11:00,
2013-02-11 06:22:00,29.0,25.0,30.20,South,187,0.0,-999.0,85,-99.99,,,-99.99,,2013-02-11 11:22:00,
2013-02-11 06:32:00,29.0,25.0,30.19,South,187,0.0,-999.0,84,-99.99,,,-99.99,,2013-02-11 11:32:00,
2013-02-11 06:42:00,29.0,25.0,30.18,South,187,0.0,-999.0,85,-99.99,,,-99.99,,2013-02-11 11:42:00,
2013-02-11 06:52:00,29.0,25.0,30.18,South,187,0.0,-999.0,85,-99.99,,,-99.99,,2013-02-11 11:52:00,
2013-02-11 07:03:00,29.0,26.0,30.17,South,187,0.0,-999.0,87,-99.99,,,-99.99,,2013-02-11 12:03:00,
2013-02-11 07:12:00,29.0,26.0,30.17,South,187,0.0,-999.0,87,-99.99,,,-99.99,,2013-02-11 12:12:00,
2013-02-11 07:22:00,30.0,27.0,30.16,South,189,0.0,-999.0,87,-99.99,,,-99.99,,2013-02-11 12:22:00,
2013-02-11 07:32:00,31.0,28.0,30.15,South,191,0.0,-999.0,88,-99.99,,,-99.99,,2013-02-11 12:32:00,
2013-02-11 07:42:00,31.0,28.0,30.13,SSW,193,0.0,-999.0,89,-99.99,,,-99.99,,2013-02-11 12:42:00,
2013-02-11 07:52:00,31.0,28.0,30.13,SSW,193,0.0,-999.0,89,-99.99,,,-99.99,,2013-02-11 12:52:00,
2013-02-11 08:02:00,32.0,29.0,30.13,South,187,0.0,-999.0,89,-99.99,,,-99.99,,2013-02-11 13:02:00,
2013-02-11 08:12:00,32.0,29.0,30.11,South,188,0.0,-999.0,89,-99.99,,,-99.99,,2013-02-11 13:12:00,
2013-02-11 08:22:00,32.0,29.0,30.11,South,188,0.0,-999.0,89,-99.99,,,-99.99,,2013-02-11 13:22:00,
2013-02-11 08:33:00,33.0,30.0,30.11,South,191,0.0,-999.0,90,-99.99,,,-99.99,,2013-02-11 13:33:00,
2013-02-11 08:42:00,33.0,30.0,30.11,South,191,0.0,-999.0,90,-99.99,,,-99.99,,2013-02-11 13:42:00,
2013-02-11 08:52:00,34.0,32.0,30.10,WSW,243,0.0,-999.0,91,-99.99,,,-99.99,,2013-02-11 13:52:00,
2013-02-11 09:02:00,34.0,32.0,30.09,WSW,240,0.0,-999.0,91,-99.99,,,-99.99,,2013-02-11 14:02:00,
2013-02-11 09:12:00,34.0,32.0,30.09,WSW,240,0.0,-999.0,91,-99.99,,,-99.99,,2013-02-11 14:12:00,
2013-02-11 09:22:00,34.0,32.0,30.07,WSW,240,0.0,-999.0,91,-99.99,,,-99.99,,2013-02-11 14:22:00,
2013-02-11 09:33:00,34.0,32.0,30.06,WSW,241,0.0,-999.0,91,-99.99,,,-99.99,,2013-02-11 14:33:00,
2013-02-11 09:42:00,35.0,33.0,30.04,WSW,241,0.0,-999.0,92,-99.99,,,-99.99,,2013-02-11 14:42:00,
2013-02-11 09:53:00,35.0,33.0,30.04,WSW,241,0.0,-999.0,92,-99.99,,,-99.99,,2013-02-11 14:53:00,
2013-02-11 10:02:00,35.0,33.0,30.02,WSW,241,0.0,-999.0,92,-99.99,,,-99.99,,2013-02-11 15:02:00,
2013-02-11 10:11:00,35.0,33.0,30.02,WSW,241,0.0,-999.0,92,-99.99,,,-99.99,,2013-02-11 15:11:00,
2013-02-11 10:22:00,36.0,34.0,30.02,SSW,194,0.0,-999.0,92,-99.99,,,-99.99,,2013-02-11 15:22:00,
2013-02-11 10:32:00,36.0,34.0,30.00,SSW,194,0.0,-999.0,92,-99.99,,,-99.99,,2013-02-11 15:32:00,
2013-02-11 10:42:00,36.0,34.0,29.99,South,178,0.0,-999.0,93,-99.99,,,-99.99,,2013-02-11 15:42:00,
2013-02-11 10:52:00,36.0,34.0,29.99,South,178,0.0,-999.0,93,-99.99,,,-99.99,,2013-02-11 15:52:00,
2013-02-11 11:02:00,38.0,36.0,29.99,SW,228,1.0,-999.0,93,-99.99,,,-99.99,,2013-02-11 16:02:00,
2013-02-11 11:12:00,38.0,36.0,29.99,SW,228,1.0,-999.0,93,-99.99,,,-99.99,,2013-02-11 16:12:00,
2013-02-11 11:22:00,38.0,36.0,29.98,SW,235,1.0,-999.0,93,-99.99,,,-99.99,,2013-02-11 16:22:00,
2013-02-11 11:32:00,38.0,36.0,29.98,SW,235,1.0,-999.0,93,-99.99,,,-99.99,,2013-02-11 16:32:00,
2013-02-11 11:42:00,39.0,37.0,29.96,SW,229,0.0,-999.0,93,-99.99,,,-99.99,,2013-02-11 16:42:00,
2013-02-11 11:53:00,39.0,37.0,29.96,SW,229,0.0,-999.0,93,-99.99,,,-99.99,,2013-02-11 16:53:00,
2013-02-11 12:02:00,39.0,37.0,29.93,SW,220,2.0,-999.0,93,-99.99,,,-99.99,,2013-02-11 17:02:00,
2013-02-11 12:12:00,39.0,37.0,29.93,SW,220,2.0,-999.0,93,-99.99,,,-99.99,,2013-02-11 17:12:00,
2013-02-11 12:22:00,39.0,37.0,29.93,SW,220,2.0,-999.0,93,-99.99,,,-99.99,,2013-02-11 17:22:00,
2013-02-11 12:32:00,40.0,38.0,29.91,SW,233,2.0,-999.0,94,-99.99,,,-99.99,,2013-02-11 17:32:00,
2013-02-11 12:42:00,40.0,38.0,29.91,SW,233,2.0,-999.0,94,-99.99,,,-99.99,,2013-02-11 17:42:00,
2013-02-11 12:53:00,41.0,39.0,29.89,SW,226,3.0,-999.0,94,-99.99,,,-99.99,,2013-02-11 17:53:00,
2013-02-11 13:02:00,42.0,40.0,29.88,SSW,204,4.0,-999.0,94,-99.99,,,-99.99,,2013-02-11 18:02:00,
2013-02-11 13:11:00,42.0,40.0,29.88,SSW,204,4.0,-999.0,94,-99.99,,,-99.99,,2013-02-11 18:11:00,
2013-02-11 13:22:00,42.0,40.0,29.85,SSW,198,3.0,-999.0,94,-99.99,,,-99.99,,2013-02-11 18:22:00,
2013-02-11 13:32:00,42.0,40.0,29.83,SW,228,4.0,-999.0,94,-99.99,,,-99.99,,2013-02-11 18:32:00,
2013-02-11 13:42:00,42.0,40.0,29.82,South,191,2.0,-999.0,94,-99.99,,,-99.99,,2013-02-11 18:42:00,
2013-02-11 13:54:00,42.0,40.0,29.82,South,191,2.0,-999.0,94,-99.99,,,-99.99,,2013-02-11 18:54:00,
2013-02-11 14:02:00,43.0,41.0,29.81,SW,228,3.0,-999.0,94,-99.99,,,-99.99,,2013-02-11 19:02:00,
2013-02-11 14:11:00,43.0,41.0,29.81,SW,228,3.0,-999.0,94,-99.99,,,-99.99,,2013-02-11 19:11:00,
2013-02-11 14:22:00,43.0,41.0,29.81,SW,228,3.0,-999.0,94,-99.99,,,-99.99,,2013-02-11 19:22:00,
2013-02-11 14:32:00,42.0,40.0,29.81,WSW,247,1.0,-999.0,94,-99.99,,,-99.99,,2013-02-11 19:32:00,
2013-02-11 14:42:00,42.0,40.0,29.81,WSW,247,1.0,-999.0,94,-99.99,,,-99.99,,2013-02-11 19:42:00,
2013-02-11 14:52:00,42.0,40.0,29.80,SW,236,1.0,-999.0,94,-99.99,,,-99.99,,2013-02-11 19:52:00,
2013-02-11 15:02:00,43.0,41.0,29.80,SSW,205,2.0,-999.0,94,-99.99,,,-99.99,,2013-02-11 20:02:00,
2013-02-11 15:11:00,43.0,41.0,29.79,WSW,250,2.0,-999.0,94,-99.99,,,-99.99,,2013-02-11 20:11:00,
2013-02-11 15:22:00,43.0,41.0,29.79,WSW,250,2.0,-999.0,94,-99.99,,,-99.99,,2013-02-11 20:22:00,
2013-02-11 15:32:00,42.0,40.0,29.78,WSW,240,2.0,-999.0,94,-99.99,,,-99.99,,2013-02-11 20:32:00,
2013-02-11 15:42:00,42.0,40.0,29.77,West,266,1.0,-999.0,94,-99.99,,,-99.99,,2013-02-11 20:42:00,
2013-02-11 15:52:00,42.0,40.0,29.77,West,266,1.0,-999.0,94,-99.99,,,-99.99,,2013-02-11 20:52:00,
2013-02-11 16:02:00,42.0,40.0,29.77,West,266,1.0,-999.0,94,-99.99,,,-99.99,,2013-02-11 21:02:00,
2013-02-11 16:12:00,42.0,40.0,29.76,WSW,241,0.0,-999.0,94,-99.99,,,-99.99,,2013-02-11 21:12:00,
2013-02-11 16:22:00,42.0,40.0,29.76,WSW,241,0.0,-999.0,94,-99.99,,,-99.99,,2013-02-11 21:22:00,
2013-02-11 16:32:00,42.0,40.0,29.75,SW,225,2.0,-999.0,94,-99.99,,,-99.99,,2013-02-11 21:32:00,
2013-02-11 16:42:00,42.0,40.0,29.75,SW,225,2.0,-999.0,94,-99.99,,,-99.99,,2013-02-11 21:42:00,
2013-02-11 16:52:00,42.0,40.0,29.73,SW,219,2.0,-999.0,94,-99.99,,,-99.99,,2013-02-11 21:52:00,
2013-02-11 17:02:00,42.0,40.0,29.73,WSW,243,1.0,-999.0,94,-99.99,,,-99.99,,2013-02-11 22:02:00,
2013-02-11 17:12:00,42.0,40.0,29.73,WSW,252,1.0,-999.0,94,-99.99,,,-99.99,,2013-02-11 22:12:00,
2013-02-11 17:22:00,42.0,40.0,29.73,WSW,252,1.0,-999.0,94,-99.99,,,-99.99,,2013-02-11 22:22:00,
2013-02-11 17:32:00,42.0,40.0,29.73,WSW,253,1.0,-999.0,94,-99.99,,,-99.99,,2013-02-11 22:32:00,
2013-02-11 17:42:00,42.0,40.0,29.73,WSW,253,1.0,-999.0,94,-99.99,,,-99.99,,2013-02-11 22:42:00,
2013-02-11 17:52:00,41.0,39.0,29.73,WSW,251,1.0,-999.0,94,-99.99,,,-99.99,,2013-02-11 22:52:00,
2013-02-11 18:02:00,41.0,39.0,29.72,WNW,297,0.0,-999.0,94,-99.99,,,-99.99,,2013-02-11 23:02:00,
2013-02-11 18:11:00,41.0,39.0,29.72,WNW,297,0.0,-999.0,94,-99.99,,,-99.99,,2013-02-11 23:11:00,
2013-02-11 18:22:00,41.0,39.0,29.72,WSW,247,2.0,-999.0,94,-99.99,,,-99.99,,2013-02-11 23:22:00,
2013-02-11 18:32:00,41.0,39.0,29.71,WSW,240,3.0,-999.0,94,-99.99,,,-99.99,,2013-02-11 23:32:00,
2013-02-11 18:42:00,41.0,39.0,29.71,WSW,240,3.0,-999.0,94,-99.99,,,-99.99,,2013-02-11 23:42:00,
2013-02-11 18:52:00,41.0,39.0,29.71,WSW,240,3.0,-999.0,94,-99.99,,,-99.99,,2013-02-11 23:52:00,
2013-02-11 19:02:00,41.0,39.0,29.70,WSW,252,2.0,-999.0,94,-99.99,,,-99.99,,2013-02-12 00:02:00,
2013-02-11 19:12:00,41.0,39.0,29.70,WSW,252,2.0,-999.0,94,-99.99,,,-99.99,,2013-02-12 00:12:00,
2013-02-11 19:22:00,40.0,38.0,29.69,West,259,2.0,-999.0,94,-99.99,,,-99.99,,2013-02-12 00:22:00,
2013-02-11 19:32:00,40.0,38.0,29.69,WSW,242,2.0,-999.0,94,-99.99,,,-99.99,,2013-02-12 00:32:00,
2013-02-11 19:42:00,40.0,38.0,29.69,WSW,242,2.0,-999.0,94,-99.99,,,-99.99,,2013-02-12 00:42:00,
2013-02-11 19:52:00,40.0,38.0,29.68,WSW,244,2.0,-999.0,94,-99.99,,,-99.99,,2013-02-12 00:52:00,
2013-02-11 20:02:00,40.0,38.0,29.68,West,259,1.0,-999.0,94,-99.99,,,-99.99,,2013-02-12 01:02:00,
2013-02-11 20:11:00,40.0,38.0,29.68,West,259,1.0,-999.0,94,-99.99,,,-99.99,,2013-02-12 01:11:00,
2013-02-11 20:22:00,40.0,38.0,29.68,West,259,1.0,-999.0,94,-99.99,,,-99.99,,2013-02-12 01:22:00,
2013-02-11 20:32:00,40.0,38.0,29.68,West,280,1.0,-999.0,94,-99.99,,,-99.99,,2013-02-12 01:32:00,
2013-02-11 20:42:00,40.0,38.0,29.68,West,280,1.0,-999.0,94,-99.99,,,-99.99,,2013-02-12 01:42:00,
2013-02-11 20:52:00,40.0,38.0,29.68,WNW,299,1.0,-999.0,94,-99.99,,,-99.99,,2013-02-12 01:52:00,
2013-02-11 21:02:00,40.0,38.0,29.68,NNW,341,1.0,-999.0,94,-99.99,,,-99.99,,2013-02-12 02:02:00,
2013-02-11 21:12:00,40.0,38.0,29.69,WNW,290,3.0,-999.0,94,-99.99,,,-99.99,,2013-02-12 02:12:00,
2013-02-11 21:22:00,40.0,38.0,29.69,WNW,290,3.0,-999.0,94,-99.99,,,-99.99,,2013-02-12 02:22:00,
2013-02-11 21:32:00,39.0,37.0,29.68,West,265,1.0,-999.0,94,-99.99,,,-99.99,,2013-02-12 02:32:00,
2013-02-11 21:42:00,39.0,37.0,29.68,West,265,1.0,-999.0,94,-99.99,,,-99.99,,2013-02-12 02:42:00,
2013-02-11 21:53:00,39.0,37.0,29.67,West,267,1.0,-999.0,94,-99.99,,,-99.99,,2013-02-12 02:53:00,
2013-02-11 22:02:00,39.0,37.0,29.66,West,275,3.0,-999.0,94,-99.99,,,-99.99,,2013-02-12 03:02:00,
2013-02-11 22:11:00,39.0,37.0,29.66,West,278,2.0,-999.0,94,-99.99,,,-99.99,,2013-02-12 03:11:00,
2013-02-11 22:21:00,39.0,37.0,29.66,West,278,2.0,-999.0,94,-99.99,,,-99.99,,2013-02-12 03:21:00,
2013-02-11 22:32:00,39.0,37.0,29.66,West,279,2.0,-999.0,94,-99.99,,,-99.99,,2013-02-12 03:32:00,
2013-02-11 22:42:00,39.0,37.0,29.66,WSW,241,3.0,-999.0,94,-99.99,,,-99.99,,2013-02-12 03:42:00,
2013-02-11 22:52:00,39.0,37.0,29.66,WSW,241,3.0,-999.0,94,-99.99,,,-99.99,,2013-02-12 03:52:00,
2013-02-11 23:01:00,39.0,37.0,29.68,NW,306,1.0,-999.0,94,-99.99,,,-99.99,,2013-02-12 04:01:00,
2013-02-11 23:11:00,39.0,37.0,29.68,NW,306,1.0,-999.0,94,-99.99,,,-99.99,,2013-02-12 04:11:00,
2013-02-11 23:21:00,39.0,37.0,29.68,NNW,347,3.0,-999.0,94,-99.99,,,-99.99,,2013-02-12 04:21:00,
2013-02-11 23:31:00,39.0,37.0,29.69,NW,307,4.0,-999.0,94,-99.99,,,-99.99,,2013-02-12 04:31:00,
2013-02-11 23:42:00,39.0,37.0,29.69,NW,307,4.0,-999.0,94,-99.99,,,-99.99,,2013-02-12 04:42:00,
2013-02-11 23:52:00,39.0,37.0,29.70,NW,322,4.0,-999.0,94,-99.99,,,-99.99,,2013-02-12 04:52:00,